Time;durP1;ratioP1;P1;durP2;ratioP2;P2;SDS_P1;SDS_P2;PMS_P1;PMS_P2;Temp;Humidity;BMP_temperature;BMP_pressure;BME280_temperature;BME280_humidity;BME280_pressure;Samples;Min_cycle;Max_cycle;Signal;HPM_P1;HPM_P2
2021/10/23 00:01:21;;;;;;;7.53;2.00;;;;;;;6.40;100.00;96625.16;5053019;28;24798;-75
2021/10/23 00:03:47;;;;;;;7.20;1.77;;;;;;;6.43;100.00;96622.50;5052999;28;24509;-75
2021/10/23 00:06:14;;;;;;;10.77;1.98;;;;;;;6.44;100.00;96619.03;5053069;28;24497;-76
2021/10/23 00:08:40;;;;;;;6.75;2.08;;;;;;;6.44;100.00;96618.19;5053008;28;24493;-75
2021/10/23 00:11:07;;;;;;;3.53;1.65;;;;;;;6.40;100.00;96616.59;5053053;28;24805;-75
2021/10/23 00:13:35;;;;;;;5.47;1.75;;;;;;;6.43;100.00;96608.78;5053059;28;24432;-75
2021/10/23 00:16:01;;;;;;;6.45;1.98;;;;;;;6.50;100.00;96613.69;5052851;28;24479;-76
2021/10/23 00:18:28;;;;;;;3.72;1.73;;;;;;;6.55;100.00;96616.94;5052624;28;24512;-75
2021/10/23 00:20:54;;;;;;;4.85;2.17;;;;;;;6.49;99.93;96608.59;5053146;28;24423;-75
2021/10/23 00:23:21;;;;;;;4.67;2.07;;;;;;;6.52;100.00;96611.88;5052745;28;24509;-75
2021/10/23 00:25:47;;;;;;;5.00;1.77;;;;;;;6.51;100.00;96615.34;5052568;28;24580;-75
2021/10/23 00:28:13;;;;;;;4.18;2.00;;;;;;;6.58;100.00;96617.75;5052825;28;24455;-75
2021/10/23 00:30:41;;;;;;;5.63;1.90;;;;;;;6.74;99.02;96612.00;5052492;28;24837;-75
2021/10/23 00:33:08;;;;;;;5.85;1.95;;;;;;;6.75;98.68;96612.88;5052628;28;24836;-75
2021/10/23 00:35:34;;;;;;;6.17;1.80;;;;;;;6.71;99.28;96616.41;5052165;28;25090;-76
2021/10/23 00:38:01;;;;;;;4.40;1.70;;;;;;;7.02;98.67;96614.47;5052411;28;24988;-76
2021/10/23 00:40:28;;;;;;;4.70;2.17;;;;;;;6.81;99.58;96620.38;5052338;28;25058;-75
2021/10/23 00:42:54;;;;;;;4.72;1.90;;;;;;;6.71;99.77;96619.00;5035772;28;25104;-76
2021/10/23 00:45:21;;;;;;;6.72;1.85;;;;;;;6.63;100.00;96614.09;5052027;28;25200;-75
2021/10/23 00:47:49;;;;;;;4.00;1.70;;;;;;;6.70;100.00;96615.59;5052342;28;24447;-75
2021/10/23 00:50:16;;;;;;;5.25;1.90;;;;;;;7.06;97.58;96619.53;5052454;28;24439;-75
2021/10/23 00:52:43;;;;;;;8.52;2.10;;;;;;;6.90;98.82;96622.63;5051506;28;24411;-75
2021/10/23 00:55:12;;;;;;;11.63;2.37;;;;;;;6.78;99.55;96621.31;5049674;28;24442;-76
2021/10/23 00:57:39;;;;;;;9.43;2.00;;;;;;;6.96;98.76;96626.72;5052197;28;24494;-75
2021/10/23 01:00:06;;;;;;;8.00;2.10;;;;;;;6.84;99.80;96625.41;5052083;28;24980;-75
2021/10/23 01:02:33;;;;;;;6.25;1.92;;;;;;;6.81;100.00;96628.09;5052102;28;24497;-75
2021/10/23 01:05:01;;;;;;;5.75;1.90;;;;;;;6.78;100.00;96626.44;5052039;28;24509;-75
2021/10/23 01:07:27;;;;;;;5.43;2.00;;;;;;;6.87;100.00;96635.63;5032217;28;25024;-75
2021/10/23 01:09:54;;;;;;;4.50;1.85;;;;;;;6.84;100.00;96638.28;5039506;28;24436;-76
2021/10/23 01:12:21;;;;;;;5.83;1.83;;;;;;;6.77;100.00;96636.81;5051798;28;24434;-76
2021/10/23 01:14:47;;;;;;;5.82;2.30;;;;;;;6.56;100.00;96633.22;5051857;28;24501;-76
2021/10/23 01:17:20;;;;;;;4.93;1.90;;;;;;;6.54;100.00;96638.44;5051541;28;24431;-76
2021/10/23 01:19:50;;;;;;;5.35;2.03;;;;;;;6.55;100.00;96642.69;5051883;28;24478;-76
2021/10/23 01:22:16;;;;;;;5.28;1.80;;;;;;;6.89;100.00;96638.97;5051561;28;24462;-76
2021/10/23 01:24:43;;;;;;;3.80;1.80;;;;;;;6.79;100.00;96635.88;5051300;28;24438;-76
2021/10/23 01:27:09;;;;;;;4.68;2.00;;;;;;;6.79;100.00;96630.72;5051704;28;24447;-76
2021/10/23 01:29:36;;;;;;;6.68;2.13;;;;;;;7.01;99.82;96630.84;5051577;28;24435;-76
2021/10/23 01:32:02;;;;;;;3.20;1.63;;;;;;;6.93;100.00;96639.69;5051504;28;24569;-76
2021/10/23 01:34:29;;;;;;;4.88;1.90;;;;;;;7.14;99.43;96643.28;5051350;28;24973;-76
2021/10/23 01:36:59;;;;;;;6.10;1.67;;;;;;;7.40;96.59;96638.03;5051336;28;24553;-77
2021/10/23 01:39:27;;;;;;;4.03;1.67;;;;;;;7.09;98.87;96647.75;5051286;28;24985;-76
2021/10/23 01:41:55;;;;;;;5.83;1.83;;;;;;;6.95;100.00;96640.50;5051194;28;24476;-76
2021/10/23 01:44:25;;;;;;;7.70;2.20;;;;;;;6.86;100.00;96649.41;5051427;28;24466;-76
2021/10/23 01:46:51;;;;;;;7.68;2.42;;;;;;;6.94;99.25;96642.25;5051295;28;24447;-77
2021/10/23 01:49:18;;;;;;;8.48;2.13;;;;;;;6.90;100.00;96643.25;5051042;28;24526;-76
2021/10/23 01:51:44;;;;;;;7.27;2.20;;;;;;;6.64;100.00;96646.69;5051183;28;24423;-76
2021/10/23 01:54:12;;;;;;;4.72;1.92;;;;;;;6.66;100.00;96644.91;5051424;28;20828;-76
2021/10/23 01:56:41;;;;;;;10.25;2.13;;;;;;;6.69;100.00;96643.97;5051044;28;24431;-76
2021/10/23 01:59:08;;;;;;;11.98;2.35;;;;;;;6.58;100.00;96640.91;5051114;28;24442;-77
2021/10/23 02:01:35;;;;;;;5.82;2.10;;;;;;;6.53;100.00;96644.47;5051085;28;24423;-76
2021/10/23 02:04:02;;;;;;;3.50;1.83;;;;;;;6.60;100.00;96641.69;5050917;28;24447;-76
2021/10/23 02:06:29;;;;;;;5.73;2.07;;;;;;;6.47;100.00;96647.22;5051074;28;24486;-76
2021/10/23 02:08:56;;;;;;;5.68;2.00;;;;;;;6.42;100.00;96643.97;5060013;28;24430;-76
2021/10/23 02:11:24;;;;;;;5.03;2.25;;;;;;;6.40;100.00;96644.91;5059787;28;24431;-76
2021/10/23 02:13:51;;;;;;;4.95;2.10;;;;;;;6.48;100.00;96641.19;5062863;28;24442;-76
2021/10/23 02:16:17;;;;;;;5.20;2.05;;;;;;;6.58;100.00;96643.47;5055328;28;24443;-76
2021/10/23 02:18:44;;;;;;;6.80;2.30;;;;;;;6.58;100.00;96644.31;5051128;28;24444;-76
2021/10/23 02:21:11;;;;;;;12.48;3.15;;;;;;;6.48;100.00;96646.34;5050800;28;24442;-76
2021/10/23 02:23:38;;;;;;;5.82;2.25;;;;;;;6.50;100.00;96643.72;5050648;28;24458;-76
2021/10/23 02:26:05;;;;;;;4.50;2.00;;;;;;;6.42;100.00;96646.56;5050595;28;24439;-76
2021/10/23 02:28:33;;;;;;;5.70;2.67;;;;;;;6.42;100.00;96654.28;5050677;28;24439;-76
2021/10/23 02:31:00;;;;;;;5.82;2.38;;;;;;;6.24;100.00;96654.84;5050407;28;24492;-76
2021/10/23 02:33:26;;;;;;;6.05;2.10;;;;;;;6.05;100.00;96652.84;5050395;28;24438;-76
2021/10/23 02:35:53;;;;;;;4.53;2.13;;;;;;;6.21;100.00;96653.22;5050138;28;24485;-77
2021/10/23 02:38:19;;;;;;;3.15;1.77;;;;;;;6.20;100.00;96655.84;5050873;28;24423;-76
2021/10/23 02:40:45;;;;;;;3.55;1.83;;;;;;;6.28;100.00;96659.84;5050217;28;24442;-76
2021/10/23 02:43:12;;;;;;;4.77;2.27;;;;;;;6.20;100.00;96654.13;5050382;28;24447;-76
2021/10/23 02:45:40;;;;;;;3.43;1.70;;;;;;;6.24;100.00;96652.28;5050061;28;24434;-76
2021/10/23 02:48:06;;;;;;;5.57;1.75;;;;;;;6.15;100.00;96662.84;5050184;28;24481;-76
2021/10/23 02:50:33;;;;;;;4.10;1.88;;;;;;;6.18;100.00;96662.75;5050341;28;24435;-76
2021/10/23 02:52:59;;;;;;;11.27;1.95;;;;;;;6.27;100.00;96668.47;5050150;28;25004;-76
2021/10/23 02:55:26;;;;;;;5.32;1.80;;;;;;;6.35;100.00;96665.66;5050101;28;24438;-76
2021/10/23 02:57:53;;;;;;;4.40;1.60;;;;;;;6.39;100.00;96661.25;5050176;28;24686;-76
2021/10/23 03:00:21;;;;;;;8.85;2.30;;;;;;;6.42;100.00;96662.00;5049850;28;25050;-76
2021/10/23 03:02:49;;;;;;;6.15;2.20;;;;;;;6.42;100.00;96662.00;5049897;28;24450;-76
2021/10/23 03:05:15;;;;;;;7.07;2.13;;;;;;;6.42;100.00;96668.88;5049884;28;24439;-76
2021/10/23 03:07:42;;;;;;;4.17;1.80;;;;;;;6.43;100.00;96663.66;5050162;28;24443;-76
2021/10/23 03:10:08;;;;;;;4.10;1.97;;;;;;;6.44;100.00;96665.34;5050002;28;25095;-76
2021/10/23 03:12:35;;;;;;;5.55;2.22;;;;;;;6.38;100.00;96670.72;5033296;28;24489;-76
2021/10/23 03:15:02;;;;;;;10.18;3.20;;;;;;;6.39;100.00;96671.53;5050248;28;24419;-76
2021/10/23 03:17:29;;;;;;;5.13;2.50;;;;;;;6.34;100.00;96670.81;5053290;28;24446;-76
2021/10/23 03:19:57;;;;;;;4.30;2.40;;;;;;;6.36;100.00;96676.78;5053886;28;25017;-76
2021/10/23 03:22:24;;;;;;;3.53;2.00;;;;;;;6.42;100.00;96676.59;5054059;28;24489;-76
2021/10/23 03:24:50;;;;;;;4.30;1.80;;;;;;;6.28;100.00;96675.28;5053530;28;24458;-76
2021/10/23 03:27:18;;;;;;;5.50;1.80;;;;;;;6.31;100.00;96676.94;5053883;28;24439;-76
2021/10/23 03:29:47;;;;;;;4.68;1.90;;;;;;;6.25;100.00;96679.69;5053926;28;24450;-76
2021/10/23 03:32:13;;;;;;;6.50;2.33;;;;;;;6.28;100.00;96684.75;5053581;28;24441;-76
2021/10/23 03:34:39;;;;;;;4.55;1.83;;;;;;;6.30;100.00;96681.25;5053603;28;24993;-76
2021/10/23 03:37:07;;;;;;;5.95;1.90;;;;;;;6.24;100.00;96676.28;5053889;28;24501;-76
2021/10/23 03:39:34;;;;;;;4.30;1.60;;;;;;;6.33;100.00;96680.28;5053560;28;24497;-76
2021/10/23 03:42:01;;;;;;;4.00;1.80;;;;;;;6.28;100.00;96680.44;5053634;28;24948;-76
2021/10/23 03:44:27;;;;;;;5.78;1.80;;;;;;;6.21;100.00;96678.09;5053104;28;24450;-76
2021/10/23 03:46:54;;;;;;;7.65;1.73;;;;;;;6.17;100.00;96684.22;5053181;28;25207;-75
2021/10/23 03:49:20;;;;;;;3.97;1.42;;;;;;;6.18;100.00;96684.16;5053517;28;24449;-76
2021/10/23 03:51:47;;;;;;;4.30;1.90;;;;;;;6.09;100.00;96683.63;5053628;28;24586;-76
2021/10/23 03:54:14;;;;;;;3.92;1.80;;;;;;;6.12;100.00;96681.81;5053472;28;24817;-76
2021/10/23 03:56:41;;;;;;;3.88;1.63;;;;;;;6.23;100.00;96676.31;5052886;28;25030;-76
2021/10/23 03:59:07;;;;;;;3.95;1.90;;;;;;;6.20;100.00;96686.72;5053614;28;24431;-76
2021/10/23 04:01:34;;;;;;;4.03;1.60;;;;;;;6.13;100.00;96682.66;5053381;28;24431;-76
2021/10/23 04:04:00;;;;;;;4.47;1.80;;;;;;;6.17;100.00;96685.06;5052773;28;24546;-76
2021/10/23 04:06:27;;;;;;;4.40;2.00;;;;;;;6.21;100.00;96683.25;5053046;28;24442;-76
2021/10/23 04:08:53;;;;;;;5.80;1.97;;;;;;;6.20;100.00;96681.56;5053062;28;24519;-76
2021/10/23 04:11:21;;;;;;;6.03;2.10;;;;;;;6.21;100.00;96683.25;5052544;28;24450;-76
2021/10/23 04:13:47;;;;;;;2.72;1.50;;;;;;;6.23;100.00;96689.16;5053047;28;24439;-76
2021/10/23 04:16:14;;;;;;;6.72;2.17;;;;;;;6.14;100.00;96687.72;5053660;28;25011;-76
2021/10/23 04:18:40;;;;;;;7.00;2.08;;;;;;;6.25;100.00;96680.53;5055818;28;24449;-77
2021/10/23 04:21:07;;;;;;;5.10;1.98;;;;;;;6.19;100.00;96682.44;5055857;28;24439;-76
2021/10/23 04:23:33;;;;;;;4.03;1.77;;;;;;;6.22;100.00;96688.31;5055248;28;24454;-76
2021/10/23 04:25:59;;;;;;;3.88;1.90;;;;;;;6.27;100.00;96683.06;5054728;28;24844;-76
2021/10/23 04:28:27;;;;;;;7.32;2.45;;;;;;;6.22;100.00;96683.19;5053480;28;24992;-76
2021/10/23 04:30:54;;;;;;;2.83;1.70;;;;;;;6.27;100.00;96683.91;5055364;28;24439;-76
2021/10/23 04:33:20;;;;;;;5.07;2.05;;;;;;;6.24;100.00;96694.28;5054947;28;24428;-76
2021/10/23 04:35:46;;;;;;;5.03;2.00;;;;;;;6.21;100.00;96688.38;5054643;28;24521;-77
2021/10/23 04:38:13;;;;;;;4.78;2.10;;;;;;;6.24;100.00;96689.13;5055866;28;24446;-77
2021/10/23 04:40:39;;;;;;;4.07;1.85;;;;;;;6.26;100.00;96689.06;5054264;28;24442;-76
2021/10/23 04:43:06;;;;;;;3.92;1.90;;;;;;;6.28;100.00;96692.47;5055101;28;24442;-76
2021/10/23 04:45:34;;;;;;;4.40;1.92;;;;;;;6.11;100.00;96685.25;5054117;28;25057;-77
2021/10/23 04:48:01;;;;;;;6.47;2.07;;;;;;;6.13;100.00;96691.19;5054680;28;24535;-76
2021/10/23 04:50:27;;;;;;;4.30;1.77;;;;;;;6.16;100.00;96690.28;5054229;28;21346;-76
2021/10/23 04:52:54;;;;;;;4.38;2.00;;;;;;;6.24;100.00;96688.31;5054076;28;24439;-76
2021/10/23 04:55:20;;;;;;;3.97;1.88;;;;;;;6.29;100.00;96689.00;5053240;28;24435;-76
2021/10/23 04:57:47;;;;;;;3.53;2.25;;;;;;;6.34;100.00;96686.25;5054224;28;25012;-76
2021/10/23 05:00:13;;;;;;;3.00;1.80;;;;;;;6.37;100.00;96689.59;5054011;28;24438;-76
2021/10/23 05:02:41;;;;;;;5.77;2.30;;;;;;;6.43;100.00;96691.97;5053670;28;24446;-77
2021/10/23 05:05:08;;;;;;;4.97;2.03;;;;;;;6.47;100.00;96688.41;5053238;28;24447;-77
2021/10/23 05:07:35;;;;;;;3.85;1.98;;;;;;;6.42;100.00;96695.44;5053732;28;24841;-77
2021/10/23 05:10:01;;;;;;;4.97;2.00;;;;;;;6.41;100.00;96691.16;5055083;28;24431;-77
2021/10/23 05:12:28;;;;;;;4.10;1.73;;;;;;;6.46;100.00;96691.88;5057219;28;24438;-77
2021/10/23 05:14:54;;;;;;;6.35;2.03;;;;;;;6.43;100.00;96693.72;5057044;28;24431;-77
2021/10/23 05:17:21;;;;;;;3.35;1.50;;;;;;;6.32;100.00;96694.03;5056308;28;24465;-76
2021/10/23 05:19:49;;;;;;;2.80;1.37;;;;;;;6.35;100.00;96698.25;5054451;28;24478;-77
2021/10/23 05:22:15;;;;;;;4.38;1.60;;;;;;;6.16;100.00;96696.25;5054120;28;24775;-77
2021/10/23 05:24:41;;;;;;;12.45;1.85;;;;;;;6.11;100.00;96692.97;5051355;28;24505;-76
2021/10/23 05:27:08;;;;;;;2.83;1.10;;;;;;;6.19;100.00;96700.44;5048264;28;24454;-77
2021/10/23 05:29:34;;;;;;;4.28;1.40;;;;;;;6.24;100.00;96698.59;5046598;28;24432;-77
2021/10/23 05:32:01;;;;;;;4.63;1.42;;;;;;;6.29;100.00;96700.13;5047810;28;24840;-76
2021/10/23 05:34:28;;;;;;;6.43;1.80;;;;;;;6.19;100.00;96696.16;5052434;28;24431;-76
2021/10/23 05:36:56;;;;;;;4.28;1.60;;;;;;;6.19;100.00;96700.44;5052487;28;24449;-76
2021/10/23 05:39:22;;;;;;;3.38;1.60;;;;;;;6.18;100.00;96702.19;5052107;28;24530;-76
2021/10/23 05:41:49;;;;;;;5.60;1.90;;;;;;;6.20;100.00;96704.72;5052864;28;24447;-76
2021/10/23 05:44:15;;;;;;;4.63;1.70;;;;;;;6.18;100.00;96715.03;5053627;28;24462;-77
2021/10/23 05:46:42;;;;;;;2.65;1.40;;;;;;;6.16;100.00;96711.69;5053584;28;24806;-77
2021/10/23 05:49:08;;;;;;;2.78;1.40;;;;;;;6.21;100.00;96721.81;5048925;28;24975;-77
2021/10/23 05:51:35;;;;;;;3.40;1.58;;;;;;;6.32;100.00;96717.19;5057392;28;24438;-76
2021/10/23 05:54:03;;;;;;;5.70;1.50;;;;;;;6.36;100.00;96717.94;5046814;28;24438;-76
2021/10/23 05:56:29;;;;;;;3.72;1.20;;;;;;;6.22;100.00;96731.22;5050736;28;24526;-77
2021/10/23 05:59:09;;;;;;;3.17;1.60;;;;;;;6.08;100.00;96736.78;5052866;28;24441;-77
2021/10/23 06:01:36;;;;;;;3.93;1.60;;;;;;;6.02;100.00;96737.81;5052766;28;25264;-76
2021/10/23 06:04:02;;;;;;;5.38;1.58;;;;;;;6.01;100.00;96738.72;5052962;28;24454;-76
2021/10/23 06:06:29;;;;;;;4.50;1.90;;;;;;;5.91;100.00;96738.97;5052744;28;24435;-77
2021/10/23 06:08:56;;;;;;;8.02;2.17;;;;;;;5.82;100.00;96746.06;5052374;28;24446;-77
2021/10/23 06:11:24;;;;;;;5.13;1.90;;;;;;;5.79;100.00;96742.75;5051957;28;24457;-77
2021/10/23 06:13:52;;;;;;;6.00;1.90;;;;;;;5.85;100.00;96752.84;5052112;28;24443;-77
2021/10/23 06:16:18;;;;;;;4.47;1.97;;;;;;;5.96;100.00;96755.13;5051035;28;25136;-77
2021/10/23 06:18:45;;;;;;;4.33;1.87;;;;;;;6.08;100.00;96754.78;5051549;28;24423;-77
2021/10/23 06:21:11;;;;;;;4.45;1.80;;;;;;;6.10;100.00;96765.88;5051840;28;24497;-77
2021/10/23 06:23:38;;;;;;;5.03;2.10;;;;;;;6.17;100.00;96763.97;5051921;28;24440;-77
2021/10/23 06:26:04;;;;;;;6.07;2.10;;;;;;;6.15;100.00;96756.28;5051766;28;24434;-78
2021/10/23 06:28:36;;;;;;;7.37;2.37;;;;;;;6.19;100.00;96757.03;5051785;28;24427;-78
2021/10/23 06:31:02;;;;;;;4.43;1.70;;;;;;;6.21;100.00;96758.69;5032195;28;24527;-77
2021/10/23 06:33:29;;;;;;;4.82;1.65;;;;;;;6.29;100.00;96763.59;5047620;28;24443;-77
2021/10/23 06:35:55;;;;;;;4.30;1.87;;;;;;;6.25;100.00;96770.56;5051116;28;24438;-77
2021/10/23 06:38:22;;;;;;;3.97;1.97;;;;;;;6.23;100.00;96772.34;5051728;28;25004;-77
2021/10/23 06:40:48;;;;;;;3.85;2.00;;;;;;;6.20;100.00;96774.16;5051738;28;24871;-77
2021/10/23 06:43:15;;;;;;;7.57;2.43;;;;;;;6.19;100.00;96778.47;5051367;28;24442;-77
2021/10/23 06:45:43;;;;;;;3.80;1.80;;;;;;;6.13;100.00;96778.66;5051274;28;24446;-78
2021/10/23 06:48:10;;;;;;;6.22;1.98;;;;;;;6.15;100.00;96786.31;5051530;28;24434;-77
2021/10/23 06:50:37;;;;;;;4.45;2.05;;;;;;;6.23;100.00;96776.63;5050958;28;24447;-78
2021/10/23 06:53:04;;;;;;;3.75;1.92;;;;;;;6.28;100.00;96785.91;5051237;28;24439;-76
2021/10/23 06:55:30;;;;;;;5.38;2.22;;;;;;;6.26;100.00;96779.13;5051507;28;24423;-77
2021/10/23 06:57:57;;;;;;;3.65;2.47;;;;;;;6.31;100.00;96787.56;5051166;28;24439;-77
2021/10/23 07:00:24;;;;;;;4.82;2.50;;;;;;;6.32;100.00;96783.25;5051068;28;24510;-77
2021/10/23 07:02:51;;;;;;;7.97;2.10;;;;;;;6.33;100.00;96785.75;5037368;28;24435;-77
2021/10/23 07:05:20;;;;;;;4.53;2.45;;;;;;;6.33;100.00;96787.50;5044954;28;24993;-77
2021/10/23 07:07:47;;;;;;;5.13;2.72;;;;;;;6.33;100.00;96801.19;5044850;28;24445;-79
2021/10/23 07:10:14;;;;;;;9.43;2.40;;;;;;;6.30;100.00;96791.00;5043344;28;25076;-77
2021/10/23 07:12:40;;;;;;;3.75;2.22;;;;;;;6.32;100.00;96798.69;5041777;28;24510;-78
2021/10/23 07:15:08;;;;;;;7.53;2.33;;;;;;;6.35;100.00;96793.47;5041735;28;25020;-78
2021/10/23 07:17:35;;;;;;;6.50;2.55;;;;;;;6.38;100.00;96804.50;5040088;28;24978;-79
2021/10/23 07:20:03;;;;;;;4.22;2.33;;;;;;;6.42;100.00;96810.41;5044616;28;24884;-78
2021/10/23 07:22:29;;;;;;;5.77;2.57;;;;;;;6.44;100.00;96808.59;5046153;28;24451;-78
2021/10/23 07:24:56;;;;;;;6.50;2.90;;;;;;;6.53;100.00;96813.50;5052370;28;24837;-79
2021/10/23 07:27:22;;;;;;;6.85;2.47;;;;;;;6.57;100.00;96806.53;5052614;28;24451;-78
2021/10/23 07:29:49;;;;;;;5.20;2.63;;;;;;;6.63;100.00;96812.31;5052831;28;24427;-77
2021/10/23 07:32:15;;;;;;;4.65;2.40;;;;;;;6.78;100.00;96811.00;5052026;28;24493;-75
2021/10/23 07:34:42;;;;;;;7.15;2.65;;;;;;;6.84;100.00;96821.13;5050206;28;24423;-76
2021/10/23 07:37:09;;;;;;;9.82;3.00;;;;;;;6.88;100.00;96809.81;5050365;28;24458;-77
2021/10/23 07:39:36;;;;;;;10.77;2.70;;;;;;;6.95;100.00;96821.63;5051165;28;24489;-77
2021/10/23 07:42:03;;;;;;;6.23;3.00;;;;;;;7.23;100.00;96824.16;5050426;28;24434;-77
2021/10/23 07:44:30;;;;;;;9.50;3.85;;;;;;;7.31;100.00;96828.22;5052224;28;24447;-76
2021/10/23 07:46:56;;;;;;;7.22;3.00;;;;;;;7.35;100.00;96828.06;5053587;28;24845;-77
2021/10/23 07:49:24;;;;;;;6.65;2.65;;;;;;;7.22;100.00;96843.06;5058802;28;24474;-76
2021/10/23 07:51:50;;;;;;;9.32;2.72;;;;;;;7.29;100.00;96835.97;5056935;28;24423;-75
2021/10/23 07:54:18;;;;;;;4.45;2.25;;;;;;;7.22;100.00;96845.63;5055790;28;24976;-77
2021/10/23 07:56:45;;;;;;;3.55;2.33;;;;;;;7.31;100.00;96854.00;5056221;28;20759;-77
2021/10/23 08:02:25;;;;;;;4.25;2.30;;;;;;;7.54;100.00;96858.38;5062004;28;24490;-78
2021/10/23 08:04:52;;;;;;;7.28;2.25;;;;;;;7.63;100.00;96848.59;5057401;28;21202;-77
2021/10/23 08:07:19;;;;;;;9.57;4.07;;;;;;;7.72;100.00;96850.88;5057727;28;25011;-77
2021/10/23 08:09:48;;;;;;;5.57;2.25;;;;;;;7.87;100.00;96846.91;5057514;28;24514;-76
2021/10/23 08:12:15;;;;;;;6.88;2.45;;;;;;;7.85;100.00;96842.69;5061360;28;20811;-76
2021/10/23 08:14:41;;;;;;;5.05;2.53;;;;;;;7.88;99.96;96856.31;5058679;28;24435;-76
2021/10/23 08:17:08;;;;;;;5.53;2.45;;;;;;;7.81;100.00;96849.69;5054983;28;24498;-76
2021/10/23 08:19:35;;;;;;;5.68;2.38;;;;;;;7.70;100.00;96852.63;5054000;28;24796;-76
2021/10/23 08:22:02;;;;;;;6.00;2.60;;;;;;;7.68;100.00;96864.75;5055129;28;24445;-76
2021/10/23 08:24:28;;;;;;;4.68;2.25;;;;;;;7.76;100.00;96867.91;5053213;28;25031;-77
2021/10/23 08:26:56;;;;;;;9.00;2.47;;;;;;;7.87;99.97;96859.81;5056146;28;24498;-77
2021/10/23 08:29:22;;;;;;;6.28;2.50;;;;;;;8.02;99.80;96865.34;5055554;28;24434;-76
2021/10/23 08:31:49;;;;;;;6.82;2.40;;;;;;;8.00;98.64;96867.94;5056286;28;24436;-77
2021/10/23 08:34:15;;;;;;;6.45;2.50;;;;;;;8.06;100.00;96861.75;5055359;28;24430;-76
2021/10/23 08:36:42;;;;;;;6.50;2.70;;;;;;;8.27;98.31;96861.00;5046695;28;24444;-76
2021/10/23 08:39:08;;;;;;;4.22;2.10;;;;;;;8.26;99.00;96867.03;5042231;28;24443;-77
2021/10/23 08:41:35;;;;;;;3.85;2.10;;;;;;;8.26;99.24;96861.88;5041167;28;25029;-77
2021/10/23 08:44:08;;;;;;;5.35;2.15;;;;;;;8.36;98.24;96859.81;5036142;28;24511;-77
2021/10/23 08:46:37;;;;;;;5.00;2.25;;;;;;;8.36;97.20;96858.06;5038588;28;21437;-77
2021/10/23 08:49:06;;;;;;;4.93;2.47;;;;;;;8.28;96.72;96859.25;5054083;28;20747;-76
2021/10/23 08:51:34;;;;;;;4.13;2.13;;;;;;;8.34;98.01;96854.69;5054910;28;20743;-76
2021/10/23 08:54:01;;;;;;;6.55;2.53;;;;;;;8.36;96.91;96854.63;5053260;28;20817;-77
2021/10/23 08:56:27;;;;;;;12.50;3.10;;;;;;;8.61;94.96;96865.78;5052351;28;20808;-76
2021/10/23 08:58:54;;;;;;;7.10;2.22;;;;;;;8.58;95.03;96872.78;5053186;28;20775;-77
2021/10/23 09:01:22;;;;;;;5.43;2.35;;;;;;;8.70;96.23;96867.16;5052958;28;24782;-77
2021/10/23 09:03:49;;;;;;;6.32;2.38;;;;;;;9.31;92.98;96862.19;5053482;28;21217;-77
2021/10/23 09:06:28;;;;;;;4.50;2.22;;;;;;;9.80;90.05;96873.09;5052781;28;20860;-77
2021/10/23 09:09:03;;;;;;;5.88;2.42;;;;;;;10.11;89.68;96877.81;5053358;28;24427;-77
2021/10/23 09:11:32;;;;;;;15.70;2.58;;;;;;;10.37;83.85;96881.88;5053185;28;20675;-77
2021/10/23 09:14:20;;;;;;;6.90;2.35;;;;;;;10.81;87.73;96883.38;5052692;28;20785;-76
2021/10/23 09:16:48;;;;;;;3.67;1.90;;;;;;;11.15;80.56;96886.06;5053324;28;21305;-78
2021/10/23 09:19:15;;;;;;;5.90;2.10;;;;;;;11.42;79.04;96869.25;5053503;28;24434;-77
2021/10/23 09:21:41;;;;;;;4.78;1.95;;;;;;;11.12;77.34;96878.47;5053549;28;24980;-77
2021/10/23 09:24:21;;;;;;;4.07;1.80;;;;;;;11.67;78.16;96864.56;5053271;28;24429;-77
2021/10/23 09:26:47;;;;;;;2.58;1.30;;;;;;;11.88;75.90;96869.63;5053165;28;21367;-77
2021/10/23 09:29:19;;;;;;;16.85;3.03;;;;;;;12.11;75.08;96866.69;5052675;28;21215;-77
2021/10/23 09:31:47;;;;;;;18.25;6.22;;;;;;;12.17;73.47;96868.16;5053477;28;24415;-77
2021/10/23 09:34:18;;;;;;;3.42;1.70;;;;;;;12.24;73.47;96861.72;5053804;28;20766;-77
2021/10/23 09:36:50;;;;;;;4.00;2.00;;;;;;;12.19;69.97;96869.72;5053225;28;24411;-77
2021/10/23 09:39:29;;;;;;;5.83;1.70;;;;;;;11.76;70.59;96865.88;5053483;28;24419;-77
2021/10/23 09:42:07;;;;;;;3.45;1.90;;;;;;;12.11;69.68;96877.91;5053375;28;24484;-76
2021/10/23 09:44:34;;;;;;;31.42;7.97;;;;;;;12.58;71.27;96876.38;5053098;28;25018;-76
2021/10/23 09:47:03;;;;;;;14.87;5.23;;;;;;;12.31;72.30;96881.22;5053189;28;24426;-77
2021/10/23 09:49:29;;;;;;;18.02;5.07;;;;;;;12.51;73.00;96881.03;5052706;28;24419;-77
2021/10/23 09:52:08;;;;;;;2.65;1.42;;;;;;;12.57;70.46;96875.53;5053205;28;24807;-77
2021/10/23 09:54:36;;;;;;;28.88;10.20;;;;;;;12.74;70.81;96885.03;5052605;28;24790;-76
2021/10/23 09:57:10;;;;;;;6.25;2.28;;;;;;;12.88;67.13;96886.03;5052793;28;24419;-77
2021/10/23 09:59:38;;;;;;;9.07;2.55;;;;;;;12.90;68.00;96881.59;5053010;28;24419;-77
2021/10/23 10:02:07;;;;;;;4.63;1.52;;;;;;;12.45;69.88;96890.91;5053096;28;24465;-76
2021/10/23 10:04:35;;;;;;;5.20;1.75;;;;;;;11.99;72.47;96886.34;5052619;28;24427;-78
2021/10/23 10:07:04;;;;;;;6.38;1.60;;;;;;;12.08;75.09;96887.63;5052385;28;25001;-77
2021/10/23 10:09:30;;;;;;;4.40;2.03;;;;;;;11.76;73.52;96889.22;5052718;28;24535;-77
2021/10/23 10:11:58;;;;;;;6.40;1.88;;;;;;;11.41;74.09;96889.19;5052356;28;24435;-77
2021/10/23 10:14:27;;;;;;;5.63;1.67;;;;;;;11.07;75.12;96897.72;5051969;28;24419;-77
2021/10/23 10:16:55;;;;;;;3.75;1.23;;;;;;;10.80;73.34;96898.09;5052162;28;20763;-77
2021/10/23 10:19:23;;;;;;;5.40;1.30;;;;;;;10.69;75.34;96902.91;5052579;28;20785;-77
2021/10/23 10:21:52;;;;;;;2.43;1.07;;;;;;;10.44;73.38;96910.09;5052187;28;20767;-77
2021/10/23 10:24:19;;;;;;;2.45;0.90;;;;;;;10.41;71.40;96906.72;5052505;28;21224;-77
2021/10/23 10:26:57;;;;;;;1.23;0.52;;;;;;;10.36;67.49;96900.91;5050688;28;20824;-76
2021/10/23 10:29:27;;;;;;;2.42;0.93;;;;;;;10.18;69.46;96897.34;5052398;28;21168;-77
2021/10/23 10:31:58;;;;;;;2.05;0.82;;;;;;;10.32;70.05;96901.13;5052404;28;20867;-77
2021/10/23 10:35:07;;;;;;;2.97;1.05;;;;;;;10.08;72.49;96893.47;5052327;28;20804;-77
2021/10/23 10:37:46;;;;;;;8.05;1.20;;;;;;;10.12;74.00;96889.84;5022591;28;20728;-77
2021/10/23 10:43:13;;;;;;;3.65;1.00;;;;;;;10.50;70.31;96887.38;5051550;28;20823;-77
2021/10/23 10:45:53;;;;;;;2.72;1.00;;;;;;;11.24;70.65;96886.56;5051102;28;24439;-77
2021/10/23 10:48:21;;;;;;;3.25;1.10;;;;;;;11.73;70.60;96885.03;5051804;28;24526;-77
2021/10/23 10:50:51;;;;;;;4.68;1.10;;;;;;;11.76;63.81;96886.63;5051652;28;24428;-77
2021/10/23 10:53:20;;;;;;;3.65;1.02;;;;;;;11.37;65.38;96883.28;5051923;28;24434;-76
2021/10/23 10:55:48;;;;;;;4.00;1.23;;;;;;;11.26;64.82;96876.94;5051767;28;24465;-77
2021/10/23 10:58:16;;;;;;;3.20;1.05;;;;;;;10.72;62.87;96892.44;5051907;28;24529;-77
2021/10/23 11:01:14;;;;;;;2.47;1.08;;;;;;;10.77;63.88;96889.63;5051914;28;24470;-77
2021/10/23 11:03:46;;;;;;;2.07;1.10;;;;;;;10.62;65.11;96891.16;5051654;28;24829;-77
2021/10/23 11:06:53;;;;;;;2.40;1.10;;;;;;;10.62;67.10;96889.41;5051556;28;20728;-77
2021/10/23 11:09:43;;;;;;;3.42;0.90;;;;;;;10.50;69.59;96886.53;5052031;28;24965;-77
2021/10/23 11:12:28;;;;;;;6.50;1.70;;;;;;;9.71;75.98;96889.00;5051774;28;24499;-77
2021/10/23 11:14:54;;;;;;;3.97;1.92;;;;;;;10.16;76.99;96883.63;5052872;28;24782;-77
2021/10/23 11:17:22;;;;;;;4.00;1.98;;;;;;;10.12;80.05;96879.50;5056810;28;24964;-77
2021/10/23 11:19:51;;;;;;;3.72;1.90;;;;;;;10.18;81.40;96884.41;5056779;28;24418;-77
2021/10/23 11:22:20;;;;;;;5.70;2.17;;;;;;;9.47;83.86;96877.94;5052794;28;24429;-77
2021/10/23 11:24:49;;;;;;;5.15;2.25;;;;;;;10.25;83.04;96890.19;5052240;28;25007;-77
2021/10/23 11:27:32;;;;;;;4.90;2.05;;;;;;;10.17;80.97;96890.50;5051938;28;24461;-78
2021/10/23 11:30:14;;;;;;;7.18;1.92;;;;;;;10.35;75.96;96893.22;5051882;28;24992;-77
2021/10/23 11:32:44;;;;;;;7.00;1.92;;;;;;;10.59;78.42;96883.50;5052324;28;20720;-76
2021/10/23 11:35:11;;;;;;;3.88;1.48;;;;;;;10.46;78.58;96879.81;5052295;28;20742;-76
2021/10/23 11:37:40;;;;;;;7.85;1.88;;;;;;;10.58;79.01;96877.50;5054659;28;20759;-77
2021/10/23 11:40:08;;;;;;;5.88;1.85;;;;;;;10.18;73.96;96875.78;5056286;28;20791;-77
2021/10/23 11:42:36;;;;;;;3.07;1.60;;;;;;;10.16;77.36;96868.09;5056664;28;20841;-76
2021/10/23 11:45:06;;;;;;;4.03;1.80;;;;;;;10.33;76.98;96877.75;5056231;28;20840;-77